sensor_id;sensor_type;location;lat;lon;timestamp;pressure;altitude;pressure_sealevel;temperature;humidity
20955;BME280;10636;19.390;-99.256;2023-04-20T00:00:35;77720.00;;;26.08;37.13
20955;BME280;10636;19.390;-99.256;2023-04-20T00:03:03;77729.25;;;26.03;37.15
20955;BME280;10636;19.390;-99.256;2023-04-20T00:05:32;77729.88;;;26.01;37.33
20955;BME280;10636;19.390;-99.256;2023-04-20T00:08:03;77731.03;;;25.94;37.06
20955;BME280;10636;19.390;-99.256;2023-04-20T00:10:31;77728.22;;;25.90;37.01
20955;BME280;10636;19.390;-99.256;2023-04-20T00:13:00;77733.50;;;25.88;37.00
20955;BME280;10636;19.390;-99.256;2023-04-20T00:15:28;77733.44;;;25.86;36.69
20955;BME280;10636;19.390;-99.256;2023-04-20T00:17:57;77743.44;;;25.84;36.86
20955;BME280;10636;19.390;-99.256;2023-04-20T00:20:25;77723.22;;;25.80;36.75
20955;BME280;10636;19.390;-99.256;2023-04-20T00:22:54;77729.22;;;25.79;36.58
20955;BME280;10636;19.390;-99.256;2023-04-20T00:25:24;77728.44;;;25.76;36.21
20955;BME280;10636;19.390;-99.256;2023-04-20T00:27:53;77725.84;;;25.78;36.27
20955;BME280;10636;19.390;-99.256;2023-04-20T00:30:21;77739.31;;;25.80;35.89
20955;BME280;10636;19.390;-99.256;2023-04-20T00:32:50;77736.69;;;25.83;36.06
20955;BME280;10636;19.390;-99.256;2023-04-20T00:35:19;77733.41;;;25.84;35.96
20955;BME280;10636;19.390;-99.256;2023-04-20T00:37:47;77731.31;;;25.83;35.58
20955;BME280;10636;19.390;-99.256;2023-04-20T00:40:15;77723.22;;;25.80;35.55
20955;BME280;10636;19.390;-99.256;2023-04-20T00:42:47;77740.63;;;25.79;35.97
20955;BME280;10636;19.390;-99.256;2023-04-20T00:45:15;77733.81;;;25.76;35.82
20955;BME280;10636;19.390;-99.256;2023-04-20T00:47:44;77747.72;;;25.71;35.51
20955;BME280;10636;19.390;-99.256;2023-04-20T00:50:12;77750.94;;;25.67;35.35
20955;BME280;10636;19.390;-99.256;2023-04-20T00:52:41;77746.91;;;25.66;35.04
20955;BME280;10636;19.390;-99.256;2023-04-20T00:55:10;77752.22;;;25.64;34.95
20955;BME280;10636;19.390;-99.256;2023-04-20T00:57:42;77750.75;;;25.61;35.14
20955;BME280;10636;19.390;-99.256;2023-04-20T01:00:15;77750.75;;;25.61;34.91
20955;BME280;10636;19.390;-99.256;2023-04-20T01:02:46;77737.28;;;25.59;34.92
20955;BME280;10636;19.390;-99.256;2023-04-20T01:05:15;77743.28;;;25.58;34.77
20955;BME280;10636;19.390;-99.256;2023-04-20T01:07:43;77745.25;;;25.57;34.15
20955;BME280;10636;19.390;-99.256;2023-04-20T01:10:12;77754.03;;;25.58;34.35
20955;BME280;10636;19.390;-99.256;2023-04-20T01:12:43;77750.63;;;25.57;33.72
20955;BME280;10636;19.390;-99.256;2023-04-20T01:15:14;77747.88;;;25.55;34.08
20955;BME280;10636;19.390;-99.256;2023-04-20T01:17:43;77751.19;;;25.53;33.85
20955;BME280;10636;19.390;-99.256;2023-04-20T01:20:11;77757.16;;;25.52;33.71
20955;BME280;10636;19.390;-99.256;2023-04-20T01:22:46;77762.50;;;25.50;33.61
20955;BME280;10636;19.390;-99.256;2023-04-20T01:25:15;77753.75;;;25.49;33.38
20955;BME280;10636;19.390;-99.256;2023-04-20T01:27:43;77761.81;;;25.49;33.08
20955;BME280;10636;19.390;-99.256;2023-04-20T01:30:12;77759.81;;;25.50;33.33
20955;BME280;10636;19.390;-99.256;2023-04-20T01:32:43;77778.66;;;25.52;32.90
20955;BME280;10636;19.390;-99.256;2023-04-20T01:35:11;77785.34;;;25.51;33.08
20955;BME280;10636;19.390;-99.256;2023-04-20T01:37:41;77789.34;;;25.50;32.80
20955;BME280;10636;19.390;-99.256;2023-04-20T01:40:12;77789.34;;;25.50;32.56
20955;BME280;10636;19.390;-99.256;2023-04-20T01:42:41;77804.13;;;25.51;32.52
20955;BME280;10636;19.390;-99.256;2023-04-20T01:45:10;77808.91;;;25.52;32.84
20955;BME280;10636;19.390;-99.256;2023-04-20T01:47:41;77814.97;;;25.53;32.34
20955;BME280;10636;19.390;-99.256;2023-04-20T01:50:10;77814.97;;;25.53;32.40
20955;BME280;10636;19.390;-99.256;2023-04-20T01:52:39;77819.63;;;25.52;32.30
20955;BME280;10636;19.390;-99.256;2023-04-20T01:55:08;77820.94;;;25.51;32.78
20955;BME280;10636;19.390;-99.256;2023-04-20T01:57:38;77815.56;;;25.51;32.95
20955;BME280;10636;19.390;-99.256;2023-04-20T02:00:08;77820.25;;;25.51;32.93
20955;BME280;10636;19.390;-99.256;2023-04-20T02:02:38;77826.88;;;25.48;33.05
20955;BME280;10636;19.390;-99.256;2023-04-20T02:05:07;77824.72;;;25.44;32.63
20955;BME280;10636;19.390;-99.256;2023-04-20T02:07:38;77832.72;;;25.42;32.93
20955;BME280;10636;19.390;-99.256;2023-04-20T02:10:07;77835.41;;;25.42;32.46
20955;BME280;10636;19.390;-99.256;2023-04-20T02:12:39;77829.94;;;25.40;32.59
20955;BME280;10636;19.390;-99.256;2023-04-20T02:15:09;77827.22;;;25.38;32.54
20955;BME280;10636;19.390;-99.256;2023-04-20T02:17:37;77842.63;;;25.38;32.20
20955;BME280;10636;19.390;-99.256;2023-04-20T02:20:07;77838.63;;;25.39;32.90
20955;BME280;10636;19.390;-99.256;2023-04-20T02:22:39;77847.44;;;25.41;32.55
20955;BME280;10636;19.390;-99.256;2023-04-20T02:25:08;77856.13;;;25.40;32.26
20955;BME280;10636;19.390;-99.256;2023-04-20T02:27:38;77856.13;;;25.40;32.81
20955;BME280;10636;19.390;-99.256;2023-04-20T02:30:07;77860.09;;;25.39;32.64
20955;BME280;10636;19.390;-99.256;2023-04-20T02:32:36;77864.72;;;25.36;32.86
20955;BME280;10636;19.390;-99.256;2023-04-20T02:35:05;77864.66;;;25.34;32.47
20955;BME280;10636;19.390;-99.256;2023-04-20T02:37:34;77867.38;;;25.36;32.89
20955;BME280;10636;19.390;-99.256;2023-04-20T02:40:03;77876.22;;;25.39;32.85
20955;BME280;10636;19.390;-99.256;2023-04-20T02:42:34;77883.66;;;25.40;32.93
20955;BME280;10636;19.390;-99.256;2023-04-20T02:45:06;77894.47;;;25.42;32.87
20955;BME280;10636;19.390;-99.256;2023-04-20T02:47:34;77901.13;;;25.41;32.78
20955;BME280;10636;19.390;-99.256;2023-04-20T02:50:04;77904.53;;;25.42;33.16
20955;BME280;10636;19.390;-99.256;2023-04-20T02:52:39;77908.59;;;25.43;33.15
20955;BME280;10636;19.390;-99.256;2023-04-20T02:55:07;77920.00;;;25.43;33.11
20955;BME280;10636;19.390;-99.256;2023-04-20T02:57:36;77921.91;;;25.41;33.52
20955;BME280;10636;19.390;-99.256;2023-04-20T03:00:07;77929.91;;;25.39;33.48
20955;BME280;10636;19.390;-99.256;2023-04-20T03:02:38;77925.75;;;25.36;33.61
20955;BME280;10636;19.390;-99.256;2023-04-20T03:05:07;77937.91;;;25.37;33.79
20955;BME280;10636;19.390;-99.256;2023-04-20T03:07:36;77941.19;;;25.35;33.48
20955;BME280;10636;19.390;-99.256;2023-04-20T03:10:06;77954.53;;;25.33;33.49
20955;BME280;10636;19.390;-99.256;2023-04-20T03:12:35;77949.78;;;25.32;33.13
20955;BME280;10636;19.390;-99.256;2023-04-20T03:15:06;77957.06;;;25.29;33.62
20955;BME280;10636;19.390;-99.256;2023-04-20T03:17:35;77952.31;;;25.27;33.20
20955;BME280;10636;19.390;-99.256;2023-04-20T03:20:04;77960.28;;;25.25;32.90
20955;BME280;10636;19.390;-99.256;2023-04-20T03:22:34;77958.91;;;25.24;33.44
20955;BME280;10636;19.390;-99.256;2023-04-20T03:25:03;77961.53;;;25.22;33.23
20955;BME280;10636;19.390;-99.256;2023-04-20T03:27:31;77964.84;;;25.21;33.10
20955;BME280;10636;19.390;-99.256;2023-04-20T03:30:03;77965.44;;;25.19;33.13
20955;BME280;10636;19.390;-99.256;2023-04-20T03:32:33;77973.50;;;25.19;33.46
20955;BME280;10636;19.390;-99.256;2023-04-20T03:35:04;77963.44;;;25.20;33.13
20955;BME280;10636;19.390;-99.256;2023-04-20T03:37:32;77962.75;;;25.19;33.35
20955;BME280;10636;19.390;-99.256;2023-04-20T03:40:01;77978.84;;;25.19;32.97
20955;BME280;10636;19.390;-99.256;2023-04-20T03:42:29;77981.63;;;25.21;33.19
20955;BME280;10636;19.390;-99.256;2023-04-20T03:45:00;77976.25;;;25.21;33.39
20955;BME280;10636;19.390;-99.256;2023-04-20T03:47:29;77986.31;;;25.21;33.07
20955;BME280;10636;19.390;-99.256;2023-04-20T03:49:59;77987.69;;;25.22;33.47
20955;BME280;10636;19.390;-99.256;2023-04-20T03:52:27;77989.59;;;25.19;33.48
20955;BME280;10636;19.390;-99.256;2023-04-20T03:54:56;77987.69;;;25.22;33.53
20955;BME280;10636;19.390;-99.256;2023-04-20T03:57:24;77989.69;;;25.21;33.88
20955;BME280;10636;19.390;-99.256;2023-04-20T03:59:53;77995.75;;;25.22;33.89
20955;BME280;10636;19.390;-99.256;2023-04-20T04:02:21;77995.75;;;25.22;33.74
20955;BME280;10636;19.390;-99.256;2023-04-20T04:04:50;77995.13;;;25.23;33.66
20955;BME280;10636;19.390;-99.256;2023-04-20T04:07:20;78002.56;;;25.25;33.92
20955;BME280;10636;19.390;-99.256;2023-04-20T04:09:49;77998.59;;;25.26;34.10
20955;BME280;10636;19.390;-99.256;2023-04-20T04:12:17;78008.59;;;25.25;33.93
20955;BME280;10636;19.390;-99.256;2023-04-20T04:14:46;78004.63;;;25.26;34.22
20955;BME280;10636;19.390;-99.256;2023-04-20T04:17:14;77999.28;;;25.26;34.17
20955;BME280;10636;19.390;-99.256;2023-04-20T04:19:43;78010.69;;;25.27;34.44
20955;BME280;10636;19.390;-99.256;2023-04-20T04:22:12;78006.00;;;25.27;34.52
20955;BME280;10636;19.390;-99.256;2023-04-20T04:24:44;77997.19;;;25.25;34.39
20955;BME280;10636;19.390;-99.256;2023-04-20T04:27:14;78016.06;;;25.27;34.36
20955;BME280;10636;19.390;-99.256;2023-04-20T04:29:42;78018.75;;;25.27;34.53
20955;BME280;10636;19.390;-99.256;2023-04-20T04:32:11;78022.13;;;25.27;34.20
20955;BME280;10636;19.390;-99.256;2023-04-20T04:34:40;78027.47;;;25.27;34.62
20955;BME280;10636;19.390;-99.256;2023-04-20T04:37:10;78024.88;;;25.29;34.46
20955;BME280;10636;19.390;-99.256;2023-04-20T04:39:39;78028.34;;;25.32;34.38
20955;BME280;10636;19.390;-99.256;2023-04-20T04:42:10;78026.34;;;25.33;34.64
20955;BME280;10636;19.390;-99.256;2023-04-20T04:44:38;78027.66;;;25.32;34.37
20955;BME280;10636;19.390;-99.256;2023-04-20T04:47:07;78029.03;;;25.33;34.50
20955;BME280;10636;19.390;-99.256;2023-04-20T04:49:37;78030.41;;;25.34;34.70
20955;BME280;10636;19.390;-99.256;2023-04-20T04:52:07;78033.75;;;25.34;34.63
20955;BME280;10636;19.390;-99.256;2023-04-20T04:54:36;78031.09;;;25.34;34.37
20955;BME280;10636;19.390;-99.256;2023-04-20T04:57:04;78034.44;;;25.35;34.36
20955;BME280;10636;19.390;-99.256;2023-04-20T04:59:35;78034.38;;;25.33;34.73
20955;BME280;10636;19.390;-99.256;2023-04-20T05:02:06;78030.41;;;25.34;34.70
20955;BME280;10636;19.390;-99.256;2023-04-20T05:04:34;78027.72;;;25.34;34.48
20955;BME280;10636;19.390;-99.256;2023-04-20T05:07:03;78036.44;;;25.34;34.17
20955;BME280;10636;19.390;-99.256;2023-04-20T05:09:31;78041.13;;;25.34;34.54
20955;BME280;10636;19.390;-99.256;2023-04-20T05:12:02;78034.38;;;25.33;34.63
20955;BME280;10636;19.390;-99.256;2023-04-20T05:14:31;78027.66;;;25.32;34.61
20955;BME280;10636;19.390;-99.256;2023-04-20T05:17:01;78036.38;;;25.32;34.25
20955;BME280;10636;19.390;-99.256;2023-04-20T05:19:30;78033.00;;;25.32;34.45
20955;BME280;10636;19.390;-99.256;2023-04-20T05:21:58;78024.88;;;25.29;34.80
20955;BME280;10636;19.390;-99.256;2023-04-20T05:24:27;78028.94;;;25.30;34.86
20955;BME280;10636;19.390;-99.256;2023-04-20T05:26:55;78024.88;;;25.29;34.41
20955;BME280;10636;19.390;-99.256;2023-04-20T05:29:24;78020.88;;;25.30;34.55
20955;BME280;10636;19.390;-99.256;2023-04-20T05:31:52;78030.25;;;25.29;34.72
20955;BME280;10636;19.390;-99.256;2023-04-20T05:34:22;78022.19;;;25.29;34.70
20955;BME280;10636;19.390;-99.256;2023-04-20T05:36:51;78026.88;;;25.29;34.65
20955;BME280;10636;19.390;-99.256;2023-04-20T05:39:20;78023.50;;;25.28;34.74
20955;BME280;10636;19.390;-99.256;2023-04-20T05:41:51;78028.19;;;25.28;34.33
20955;BME280;10636;19.390;-99.256;2023-04-20T05:44:19;78015.38;;;25.26;34.51
20955;BME280;10636;19.390;-99.256;2023-04-20T05:46:48;78024.88;;;25.29;34.61
20955;BME280;10636;19.390;-99.256;2023-04-20T05:49:16;78016.75;;;25.27;34.95
20955;BME280;10636;19.390;-99.256;2023-04-20T05:51:46;78012.75;;;25.28;34.76
20955;BME280;10636;19.390;-99.256;2023-04-20T05:54:15;78014.75;;;25.28;34.85
20955;BME280;10636;19.390;-99.256;2023-04-20T05:56:43;78011.38;;;25.27;34.57
20955;BME280;10636;19.390;-99.256;2023-04-20T05:59:12;78014.06;;;25.27;34.51
20955;BME280;10636;19.390;-99.256;2023-04-20T06:01:40;78018.06;;;25.26;34.94
20955;BME280;10636;19.390;-99.256;2023-04-20T06:04:09;78019.34;;;25.25;34.54
20955;BME280;10636;19.390;-99.256;2023-04-20T06:06:37;78013.28;;;25.25;34.71
20955;BME280;10636;19.390;-99.256;2023-04-20T06:09:08;78011.22;;;25.23;34.43
20955;BME280;10636;19.390;-99.256;2023-04-20T06:11:36;78011.22;;;25.23;34.95
20955;BME280;10636;19.390;-99.256;2023-04-20T06:14:05;77999.81;;;25.23;34.49
20955;BME280;10636;19.390;-99.256;2023-04-20T06:16:33;77999.13;;;25.22;34.49
20955;BME280;10636;19.390;-99.256;2023-04-20T06:19:02;77993.75;;;25.22;34.74
20955;BME280;10636;19.390;-99.256;2023-04-20T06:21:32;77992.38;;;25.21;34.80
20955;BME280;10636;19.390;-99.256;2023-04-20T06:24:01;77988.38;;;25.22;34.51
20955;BME280;10636;19.390;-99.256;2023-04-20T06:26:32;77982.91;;;25.20;34.77
20955;BME280;10636;19.390;-99.256;2023-04-20T06:29:00;77978.16;;;25.19;34.54
20955;BME280;10636;19.390;-99.256;2023-04-20T06:31:29;77979.53;;;25.20;34.73
20955;BME280;10636;19.390;-99.256;2023-04-20T06:33:58;77980.84;;;25.19;34.50
20955;BME280;10636;19.390;-99.256;2023-04-20T06:36:26;77982.16;;;25.18;34.59
20955;BME280;10636;19.390;-99.256;2023-04-20T06:38:55;77982.84;;;25.18;34.30
20955;BME280;10636;19.390;-99.256;2023-04-20T06:41:23;77986.84;;;25.17;34.59
20955;BME280;10636;19.390;-99.256;2023-04-20T06:43:53;77985.47;;;25.16;34.90
20955;BME280;10636;19.390;-99.256;2023-04-20T06:46:22;77986.16;;;25.17;34.99
20955;BME280;10636;19.390;-99.256;2023-04-20T06:48:50;77984.78;;;25.16;34.64
20955;BME280;10636;19.390;-99.256;2023-04-20T06:51:19;77985.47;;;25.16;34.68
20955;BME280;10636;19.390;-99.256;2023-04-20T06:53:47;77982.00;;;25.14;34.47
20955;BME280;10636;19.390;-99.256;2023-04-20T06:56:17;77982.69;;;25.14;34.83
20955;BME280;10636;19.390;-99.256;2023-04-20T06:58:47;77988.06;;;25.14;34.49
20955;BME280;10636;19.390;-99.256;2023-04-20T07:01:17;77981.31;;;25.13;34.90
20955;BME280;10636;19.390;-99.256;2023-04-20T07:03:45;77975.94;;;25.13;34.62
20955;BME280;10636;19.390;-99.256;2023-04-20T07:06:14;77978.56;;;25.11;34.56
20955;BME280;10636;19.390;-99.256;2023-04-20T07:08:42;77971.91;;;25.12;34.69
20955;BME280;10636;19.390;-99.256;2023-04-20T07:11:14;77971.91;;;25.12;34.70
20955;BME280;10636;19.390;-99.256;2023-04-20T07:13:42;77966.47;;;25.10;34.73
20955;BME280;10636;19.390;-99.256;2023-04-20T07:16:16;77972.50;;;25.11;34.90
20955;BME280;10636;19.390;-99.256;2023-04-20T07:18:45;77962.47;;;25.11;34.74
20955;BME280;10636;19.390;-99.256;2023-04-20T07:21:13;77967.75;;;25.09;34.92
20955;BME280;10636;19.390;-99.256;2023-04-20T07:23:42;77963.00;;;25.08;34.58
20955;BME280;10636;19.390;-99.256;2023-04-20T07:26:10;77966.31;;;25.06;34.57
20955;BME280;10636;19.390;-99.256;2023-04-20T07:28:39;77977.03;;;25.06;34.84
20955;BME280;10636;19.390;-99.256;2023-04-20T07:31:07;77974.25;;;25.04;34.73
20955;BME280;10636;19.390;-99.256;2023-04-20T07:33:38;77970.28;;;25.05;34.71
20955;BME280;10636;19.390;-99.256;2023-04-20T07:36:07;77970.28;;;25.05;34.97
20955;BME280;10636;19.390;-99.256;2023-04-20T07:38:35;77969.56;;;25.04;35.00
20955;BME280;10636;19.390;-99.256;2023-04-20T07:41:06;77963.44;;;25.02;34.58
20955;BME280;10636;19.390;-99.256;2023-04-20T07:43:37;77964.06;;;25.00;34.44
20955;BME280;10636;19.390;-99.256;2023-04-20T07:46:06;77955.38;;;25.02;35.14
20955;BME280;10636;19.390;-99.256;2023-04-20T07:48:35;77953.31;;;25.00;34.96
20955;BME280;10636;19.390;-99.256;2023-04-20T07:51:05;77956.59;;;24.99;34.92
20955;BME280;10636;19.390;-99.256;2023-04-20T07:53:34;77957.91;;;24.98;35.08
20955;BME280;10636;19.390;-99.256;2023-04-20T07:56:02;77943.81;;;24.97;35.03
20955;BME280;10636;19.390;-99.256;2023-04-20T07:58:31;77949.81;;;24.96;34.94
20955;BME280;10636;19.390;-99.256;2023-04-20T08:01:00;77948.50;;;24.97;34.87
20955;BME280;10636;19.390;-99.256;2023-04-20T08:03:28;77948.50;;;24.97;35.18
20955;BME280;10636;19.390;-99.256;2023-04-20T08:05:58;77946.44;;;24.95;35.11
20955;BME280;10636;19.390;-99.256;2023-04-20T08:08:28;77942.44;;;24.96;34.50
20955;BME280;10636;19.390;-99.256;2023-04-20T08:10:57;77952.47;;;24.96;34.80
20955;BME280;10636;19.390;-99.256;2023-04-20T08:13:25;77942.44;;;24.96;34.77
20955;BME280;10636;19.390;-99.256;2023-04-20T08:15:54;77951.09;;;24.95;34.81
20955;BME280;10636;19.390;-99.256;2023-04-20T08:18:23;77945.06;;;24.94;34.91
20955;BME280;10636;19.390;-99.256;2023-04-20T08:20:51;77946.34;;;24.93;34.57
20955;BME280;10636;19.390;-99.256;2023-04-20T08:23:20;77937.59;;;24.93;35.20
20955;BME280;10636;19.390;-99.256;2023-04-20T08:25:54;77932.25;;;24.93;34.80
20955;BME280;10636;19.390;-99.256;2023-04-20T08:28:23;77930.88;;;24.92;34.77
20955;BME280;10636;19.390;-99.256;2023-04-20T08:30:52;77934.84;;;24.91;34.70
20955;BME280;10636;19.390;-99.256;2023-04-20T08:33:20;77929.50;;;24.91;34.88
20955;BME280;10636;19.390;-99.256;2023-04-20T08:35:50;77930.81;;;24.90;34.47
20955;BME280;10636;19.390;-99.256;2023-04-20T08:38:18;77933.47;;;24.90;34.71
20955;BME280;10636;19.390;-99.256;2023-04-20T08:40:49;77921.28;;;24.87;34.78
20955;BME280;10636;19.390;-99.256;2023-04-20T08:43:19;77929.34;;;24.87;34.99
20955;BME280;10636;19.390;-99.256;2023-04-20T08:45:48;77930.03;;;24.87;34.86
20955;BME280;10636;19.390;-99.256;2023-04-20T08:48:19;77934.63;;;24.85;35.04
20955;BME280;10636;19.390;-99.256;2023-04-20T08:50:49;77926.66;;;24.87;34.82
20955;BME280;10636;19.390;-99.256;2023-04-20T08:53:18;77923.97;;;24.87;34.60
20955;BME280;10636;19.390;-99.256;2023-04-20T08:55:48;77926.66;;;24.87;34.58
20955;BME280;10636;19.390;-99.256;2023-04-20T08:58:19;77925.28;;;24.86;35.11
20955;BME280;10636;19.390;-99.256;2023-04-20T09:00:48;77926.66;;;24.87;34.51
20955;BME280;10636;19.390;-99.256;2023-04-20T09:03:16;77914.53;;;24.86;34.79
20955;BME280;10636;19.390;-99.256;2023-04-20T09:05:45;77921.81;;;24.83;35.12
20955;BME280;10636;19.390;-99.256;2023-04-20T09:08:13;77921.22;;;24.85;34.86
20955;BME280;10636;19.390;-99.256;2023-04-20T09:10:42;77919.75;;;24.82;35.08
20955;BME280;10636;19.390;-99.256;2023-04-20T09:13:22;77915.69;;;24.81;34.52
20955;BME280;10636;19.390;-99.256;2023-04-20T09:15:51;77919.06;;;24.81;34.67
20955;BME280;10636;19.390;-99.256;2023-04-20T09:18:19;77927.81;;;24.82;34.71
20955;BME280;10636;19.390;-99.256;2023-04-20T09:20:49;77929.78;;;24.81;34.53
20955;BME280;10636;19.390;-99.256;2023-04-20T09:23:19;77929.03;;;24.78;35.05
20955;BME280;10636;19.390;-99.256;2023-04-20T09:25:50;77926.38;;;24.78;35.15
20955;BME280;10636;19.390;-99.256;2023-04-20T09:28:21;77924.91;;;24.75;35.23
20955;BME280;10636;19.390;-99.256;2023-04-20T09:30:49;77927.66;;;24.77;34.58
20955;BME280;10636;19.390;-99.256;2023-04-20T09:33:18;77914.47;;;24.66;34.77
20955;BME280;10636;19.390;-99.256;2023-04-20T09:35:47;77926.19;;;24.74;34.71
20955;BME280;10636;19.390;-99.256;2023-04-20T09:38:16;77929.56;;;24.75;35.30
20955;BME280;10636;19.390;-99.256;2023-04-20T09:40:44;77930.94;;;24.76;35.10
20955;BME280;10636;19.390;-99.256;2023-04-20T09:43:17;77929.56;;;24.75;34.96
20955;BME280;10636;19.390;-99.256;2023-04-20T09:45:48;77928.19;;;24.74;35.32
20955;BME280;10636;19.390;-99.256;2023-04-20T09:48:17;77928.19;;;24.74;34.73
20955;BME280;10636;19.390;-99.256;2023-04-20T09:50:47;77926.81;;;24.73;34.72
20955;BME280;10636;19.390;-99.256;2023-04-20T09:53:16;77928.78;;;24.72;34.67
20955;BME280;10636;19.390;-99.256;2023-04-20T09:55:45;77917.69;;;24.62;34.88
20955;BME280;10636;19.390;-99.256;2023-04-20T09:58:16;77934.09;;;24.70;34.61
20955;BME280;10636;19.390;-99.256;2023-04-20T10:00:47;77929.41;;;24.71;35.01
20955;BME280;10636;19.390;-99.256;2023-04-20T10:03:16;77934.72;;;24.69;34.57
20955;BME280;10636;19.390;-99.256;2023-04-20T10:05:45;77938.06;;;24.69;34.79
20955;BME280;10636;19.390;-99.256;2023-04-20T10:08:14;77940.13;;;24.71;34.59
20955;BME280;10636;19.390;-99.256;2023-04-20T10:10:43;77937.97;;;24.67;35.12
20955;BME280;10636;19.390;-99.256;2023-04-20T10:13:14;77937.97;;;24.67;34.73
20955;BME280;10636;19.390;-99.256;2023-04-20T10:15:44;77940.66;;;24.67;34.78
20955;BME280;10636;19.390;-99.256;2023-04-20T10:18:19;77935.31;;;24.67;34.81
20955;BME280;10636;19.390;-99.256;2023-04-20T10:20:48;77943.34;;;24.67;34.81
20955;BME280;10636;19.390;-99.256;2023-04-20T10:23:17;77937.97;;;24.67;35.27
20955;BME280;10636;19.390;-99.256;2023-04-20T10:25:55;77946.66;;;24.66;35.34
20955;BME280;10636;19.390;-99.256;2023-04-20T10:28:36;77939.91;;;24.65;35.10
20955;BME280;10636;19.390;-99.256;2023-04-20T10:31:07;77944.59;;;24.64;34.76
20955;BME280;10636;19.390;-99.256;2023-04-20T10:33:50;77943.13;;;24.61;35.37
20955;BME280;10636;19.390;-99.256;2023-04-20T10:36:27;77937.75;;;24.61;34.80
20955;BME280;10636;19.390;-99.256;2023-04-20T10:38:56;77947.09;;;24.60;35.11
20955;BME280;10636;19.390;-99.256;2023-04-20T10:41:25;77940.38;;;24.59;34.66
20955;BME280;10636;19.390;-99.256;2023-04-20T10:43:54;77945.72;;;24.59;35.11
20955;BME280;10636;19.390;-99.256;2023-04-20T10:46:23;77944.34;;;24.58;34.68
20955;BME280;10636;19.390;-99.256;2023-04-20T10:48:55;77953.09;;;24.59;34.87
20955;BME280;10636;19.390;-99.256;2023-04-20T10:51:24;77958.34;;;24.57;34.64
20955;BME280;10636;19.390;-99.256;2023-04-20T10:54:03;77963.72;;;24.57;35.00
20955;BME280;10636;19.390;-99.256;2023-04-20T10:56:39;77956.31;;;24.55;35.24
20955;BME280;10636;19.390;-99.256;2023-04-20T10:59:09;77971.00;;;24.54;34.93
20955;BME280;10636;19.390;-99.256;2023-04-20T11:01:38;77972.38;;;24.55;34.75
20955;BME280;10636;19.390;-99.256;2023-04-20T11:04:09;77967.03;;;24.55;35.11
20955;BME280;10636;19.390;-99.256;2023-04-20T11:06:39;77976.38;;;24.54;34.57
20955;BME280;10636;19.390;-99.256;2023-04-20T11:09:18;77973.47;;;24.48;34.78
20955;BME280;10636;19.390;-99.256;2023-04-20T11:11:57;77976.31;;;24.52;34.73
20955;BME280;10636;19.390;-99.256;2023-04-20T11:14:27;77971.53;;;24.50;35.00
20955;BME280;10636;19.390;-99.256;2023-04-20T11:16:56;77984.88;;;24.48;35.34
20955;BME280;10636;19.390;-99.256;2023-04-20T11:19:28;77982.19;;;24.48;35.00
20955;BME280;10636;19.390;-99.256;2023-04-20T11:21:56;77987.63;;;24.50;34.98
20955;BME280;10636;19.390;-99.256;2023-04-20T11:24:27;77982.94;;;24.51;34.59
20955;BME280;10636;19.390;-99.256;2023-04-20T11:26:56;77994.97;;;24.50;34.95
20955;BME280;10636;19.390;-99.256;2023-04-20T11:29:29;77992.28;;;24.50;34.74
20955;BME280;10636;19.390;-99.256;2023-04-20T11:31:59;77990.91;;;24.49;35.13
20955;BME280;10636;19.390;-99.256;2023-04-20T11:34:29;77993.59;;;24.49;35.38
20955;BME280;10636;19.390;-99.256;2023-04-20T11:37:03;77998.88;;;24.47;35.21
20955;BME280;10636;19.390;-99.256;2023-04-20T11:39:32;78004.84;;;24.45;34.78
20955;BME280;10636;19.390;-99.256;2023-04-20T11:42:00;77996.13;;;24.45;34.96
20955;BME280;10636;19.390;-99.256;2023-04-20T11:44:29;77997.41;;;24.44;35.03
20955;BME280;10636;19.390;-99.256;2023-04-20T11:46:58;77996.63;;;24.41;35.77
20955;BME280;10636;19.390;-99.256;2023-04-20T11:49:29;78001.94;;;24.39;35.79
20955;BME280;10636;19.390;-99.256;2023-04-20T11:51:57;78003.91;;;24.39;35.22
20955;BME280;10636;19.390;-99.256;2023-04-20T11:54:26;78010.59;;;24.38;35.14
20955;BME280;10636;19.390;-99.256;2023-04-20T11:56:57;78011.19;;;24.36;35.78
20955;BME280;10636;19.390;-99.256;2023-04-20T11:59:26;78018.53;;;24.36;35.45
20955;BME280;10636;19.390;-99.256;2023-04-20T12:01:55;78019.81;;;24.35;35.36
20955;BME280;10636;19.390;-99.256;2023-04-20T12:04:23;78022.41;;;24.33;35.45
20955;BME280;10636;19.390;-99.256;2023-04-20T12:06:53;78032.50;;;24.34;35.79
20955;BME280;10636;19.390;-99.256;2023-04-20T12:09:24;78033.81;;;24.33;36.42
20955;BME280;10636;19.390;-99.256;2023-04-20T12:11:52;78027.09;;;24.32;35.56
20955;BME280;10636;19.390;-99.256;2023-04-20T12:14:21;78043.84;;;24.33;36.26
20955;BME280;10636;19.390;-99.256;2023-04-20T12:16:49;78037.13;;;24.32;35.90
20955;BME280;10636;19.390;-99.256;2023-04-20T12:19:18;78043.06;;;24.30;35.74
20955;BME280;10636;19.390;-99.256;2023-04-20T12:21:46;78043.00;;;24.28;35.80
20955;BME280;10636;19.390;-99.256;2023-04-20T12:24:16;78047.66;;;24.27;35.72
20955;BME280;10636;19.390;-99.256;2023-04-20T12:26:45;78048.34;;;24.28;35.64
20955;BME280;10636;19.390;-99.256;2023-04-20T12:29:14;78047.66;;;24.27;36.15
20955;BME280;10636;19.390;-99.256;2023-04-20T12:31:43;78050.97;;;24.26;36.28
20955;BME280;10636;19.390;-99.256;2023-04-20T12:34:11;78057.09;;;24.29;36.27
20955;BME280;10636;19.390;-99.256;2023-04-20T12:36:40;78055.03;;;24.27;36.10
20955;BME280;10636;19.390;-99.256;2023-04-20T12:39:08;78056.16;;;24.22;36.04
20955;BME280;10636;19.390;-99.256;2023-04-20T12:41:40;78058.59;;;24.16;35.62
20955;BME280;10636;19.390;-99.256;2023-04-20T12:44:08;78065.16;;;24.13;36.02
20955;BME280;10636;19.390;-99.256;2023-04-20T12:46:38;78073.00;;;24.09;35.79
20955;BME280;10636;19.390;-99.256;2023-04-20T12:49:07;78072.94;;;24.07;36.10
20955;BME280;10636;19.390;-99.256;2023-04-20T12:51:36;78069.47;;;24.04;36.24